Reuver, Netherlands
Current Conditions -  °F | °C
As of 7:50 PM on Tuesday 27 Jan 2015 (Local Time) from EDLN Reporting Station
Scattered Clouds Scattered Clouds  
Wind Chill: 36°   Ceiling: Unl
Heat Index: 41°   Visibility: 6mi
Dew Point: 39°   Wind: 7mph
Humidity: 93%   Direction: 280°W
Pressure: 30.18"   Gusts: NA
Location:  51.28°N, 6.08°E
Report Text: EDLN 271850Z 28006KT 240V300 9999 SCT020 SCT050 05/04 Q1022 RMK ATIS Y
Loading
Personal Weather Stations






























Interactive Weather Map New forecast layout! Learn more

10-Day Weather Forecast

Advertisements
Track Severe Weather on mobile